Time;durP1;ratioP1;P1;durP2;ratioP2;P2;SDS_P1;SDS_P2;PMS_P1;PMS_P2;Temp;Humidity;BMP_temperature;BMP_pressure;BME280_temperature;BME280_humidity;BME280_pressure;Samples;Min_cycle;Max_cycle;Signal;HPM_P1;HPM_P2
2021/05/06 00:32:55;;;;;;;4.53;2.60;;;7.70;87.00;;;;;;4381267;32;20166;-64
2021/05/06 00:35:22;;;;;;;4.47;2.40;;;7.80;84.80;;;;;;4389519;32;20162;-62
2021/05/06 00:38:03;;;;;;;3.35;2.42;;;7.90;81.30;;;;;;4367849;32;20158;-61
2021/05/06 00:46:19;;;;;;;3.40;2.37;;;8.20;75.20;;;;;;4387522;32;20101;-62
2021/05/06 00:56:57;;;;;;;3.15;2.33;;;8.20;79.00;;;;;;4367408;32;20081;-62
2021/05/06 00:59:44;;;;;;;4.53;2.12;;;8.20;79.60;;;;;;4381335;32;20103;-61
2021/05/06 01:04:45;;;;;;;3.05;2.37;;;8.20;81.10;;;;;;4381262;32;20074;-62
2021/05/06 01:12:35;;;;;;;6.93;2.70;;;8.30;81.80;;;;;;4380417;32;20439;-61
2021/05/06 01:15:02;;;;;;;5.72;2.70;;;8.30;80.70;;;;;;4353805;32;20081;-61
2021/05/06 01:17:28;;;;;;;4.05;2.28;;;8.30;81.10;;;;;;4378827;32;20078;-61
2021/05/06 01:19:54;;;;;;;5.22;2.50;;;8.40;80.00;;;;;;4377859;32;20066;-63
2021/05/06 01:22:20;;;;;;;3.40;2.72;;;8.40;79.90;;;;;;4383198;32;20066;-61
2021/05/06 01:24:53;;;;;;;3.20;2.35;;;8.40;79.80;;;;;;4390020;32;20093;-63
2021/05/06 01:27:25;;;;;;;4.68;2.72;;;8.50;79.00;;;;;;4381289;32;20698;-62
2021/05/06 01:30:08;;;;;;;5.10;2.60;;;8.50;79.10;;;;;;4380813;32;20067;-61
2021/05/06 01:35:05;;;;;;;3.60;2.15;;;8.50;77.80;;;;;;4389238;32;20073;-62
2021/05/06 01:37:50;;;;;;;5.00;2.45;;;8.50;77.80;;;;;;4389215;32;20165;-62
2021/05/06 01:42:56;;;;;;;4.62;2.90;;;8.60;77.80;;;;;;4392094;32;20167;-63
2021/05/06 01:58:55;;;;;;;5.28;2.97;;;8.70;75.80;;;;;;4391799;32;20089;-62
2021/05/06 02:01:22;;;;;;;3.87;2.50;;;8.70;77.40;;;;;;4389688;32;20077;-62
2021/05/06 02:03:48;;;;;;;3.78;2.72;;;8.60;77.20;;;;;;4379584;32;20117;-61
2021/05/06 02:06:15;;;;;;;3.70;2.42;;;8.70;77.20;;;;;;4383502;32;20092;-62
2021/05/06 02:08:41;;;;;;;3.70;2.75;;;8.70;75.90;;;;;;4390761;32;20177;-63
2021/05/06 02:11:07;;;;;;;5.35;2.60;;;8.80;75.80;;;;;;4379931;32;20069;-62
2021/05/06 02:13:33;;;;;;;4.03;2.25;;;8.80;74.30;;;;;;4395815;32;20597;-62
2021/05/06 02:16:02;;;;;;;3.83;2.70;;;8.90;74.30;;;;;;4374831;32;20088;-61
2021/05/06 02:18:31;;;;;;;3.67;2.60;;;8.80;74.00;;;;;;4393527;32;20086;-62
2021/05/06 02:20:57;;;;;;;4.62;2.83;;;8.90;73.10;;;;;;4394121;32;20057;-63
2021/05/06 02:23:23;;;;;;;5.50;2.60;;;8.90;73.30;;;;;;4381557;32;20070;-61
2021/05/06 02:25:49;;;;;;;4.28;2.75;;;8.90;73.90;;;;;;4389469;32;20444;-62
2021/05/06 02:28:15;;;;;;;4.47;2.80;;;8.90;74.70;;;;;;4379326;32;20082;-63
2021/05/06 02:30:42;;;;;;;4.22;2.53;;;8.90;75.40;;;;;;4402837;32;20065;-62
2021/05/06 02:33:09;;;;;;;5.15;2.60;;;8.90;74.40;;;;;;4379493;32;20524;-61
2021/05/06 02:35:37;;;;;;;9.40;2.97;;;8.90;74.50;;;;;;4378455;32;20082;-65
2021/05/06 02:38:04;;;;;;;4.20;2.70;;;8.90;74.60;;;;;;4376573;32;20077;-63
2021/05/06 02:40:30;;;;;;;4.55;2.67;;;9.00;73.70;;;;;;4382288;32;20592;-62
2021/05/06 02:42:56;;;;;;;3.90;2.50;;;9.00;73.70;;;;;;4391755;32;20512;-63
2021/05/06 02:45:23;;;;;;;5.35;2.70;;;9.10;71.60;;;;;;4378135;32;20443;-61
2021/05/06 02:47:49;;;;;;;5.22;2.80;;;9.10;72.00;;;;;;4384533;32;20074;-62
2021/05/06 02:50:16;;;;;;;3.72;2.53;;;9.20;71.00;;;;;;4385045;32;20088;-62
2021/05/06 02:52:51;;;;;;;5.20;2.60;;;9.20;70.70;;;;;;4390462;32;20149;-62
2021/05/06 02:55:36;;;;;;;3.92;2.40;;;9.30;70.90;;;;;;4382081;32;20080;-61
2021/05/06 02:58:07;;;;;;;4.40;2.50;;;9.30;71.10;;;;;;4376736;32;20081;-63
2021/05/06 03:03:19;;;;;;;5.10;2.92;;;9.30;70.30;;;;;;4396109;32;20101;-62
2021/05/06 03:05:51;;;;;;;4.28;2.67;;;9.40;71.20;;;;;;4406352;32;20069;-62
2021/05/06 03:08:25;;;;;;;4.82;2.67;;;9.40;70.50;;;;;;4379483;32;20076;-62
2021/05/06 03:11:03;;;;;;;5.12;2.80;;;9.60;69.40;;;;;;4365838;32;20516;-62
2021/05/06 03:24:14;;;;;;;3.03;2.30;;;10.00;66.30;;;;;;4380331;32;20564;-62
2021/05/06 03:26:40;;;;;;;5.20;2.70;;;10.00;65.70;;;;;;4382850;32;20148;-63
2021/05/06 03:29:20;;;;;;;5.28;2.62;;;10.00;65.40;;;;;;4391008;32;20080;-62
2021/05/06 03:34:42;;;;;;;4.93;2.70;;;9.90;65.30;;;;;;4384793;32;20582;-63
2021/05/06 03:42:46;;;;;;;4.37;2.90;;;10.00;64.50;;;;;;4391302;32;20073;-62
2021/05/06 04:03:08;;;;;;;7.28;2.55;;;10.10;63.50;;;;;;4350328;32;20078;-61
2021/05/06 04:15:24;;;;;;;3.53;2.70;;;10.50;61.10;;;;;;4368683;32;20066;-62
2021/05/06 04:17:58;;;;;;;3.15;2.37;;;10.60;60.60;;;;;;4389044;32;20157;-63
2021/05/06 04:35:25;;;;;;;3.97;2.37;;;11.00;58.40;;;;;;4392473;32;20133;-62
2021/05/06 04:36:55;;;;;;;4.55;2.50;;;11.60;56.40;;;;;;4402440;32;20149;-62
2021/05/06 04:39:38;;;;;;;4.65;2.35;;;13.20;48.40;;;;;;4381329;32;20082;-63
2021/05/06 04:50:22;;;;;;;4.12;2.60;;;14.90;42.30;;;;;;4390006;32;20508;-62
2021/05/06 04:55:47;;;;;;;3.75;2.30;;;15.30;42.00;;;;;;4370499;32;20076;-62
2021/05/06 05:06:14;;;;;;;5.57;2.80;;;15.00;43.20;;;;;;4400036;32;20073;-63
2021/05/06 05:08:52;;;;;;;3.40;2.30;;;14.80;42.90;;;;;;4392634;32;20082;-63
2021/05/06 05:14:26;;;;;;;6.03;2.70;;;14.70;42.30;;;;;;4377796;32;20065;-62
2021/05/06 05:19:59;;;;;;;4.65;2.65;;;15.30;41.70;;;;;;4389601;32;20106;-63
2021/05/06 05:25:14;;;;;;;4.85;2.42;;;15.50;39.30;;;;;;4390705;32;20070;-62
2021/05/06 05:27:40;;;;;;;7.40;2.37;;;16.30;39.00;;;;;;4384399;32;20096;-62
2021/05/06 05:30:07;;;;;;;3.47;2.50;;;16.00;39.70;;;;;;4379424;32;20121;-62
2021/05/06 05:32:33;;;;;;;2.85;2.22;;;15.70;39.20;;;;;;4381450;32;20078;-61
2021/05/06 05:35:04;;;;;;;3.20;2.50;;;15.50;42.10;;;;;;4388390;32;20507;-61
2021/05/06 05:37:35;;;;;;;6.82;2.55;;;15.30;41.60;;;;;;4370426;32;20162;-61
2021/05/06 05:43:06;;;;;;;4.57;2.53;;;15.50;42.00;;;;;;4382022;32;20082;-60
2021/05/06 05:56:20;;;;;;;2.70;2.15;;;16.10;39.90;;;;;;4403683;32;20084;-61
2021/05/06 05:58:46;;;;;;;3.83;2.40;;;16.20;39.80;;;;;;4395379;32;20471;-61
2021/05/06 06:01:12;;;;;;;4.10;2.67;;;16.60;39.10;;;;;;4405988;32;20101;-60
2021/05/06 06:03:38;;;;;;;3.30;2.40;;;16.60;38.80;;;;;;4392154;32;20085;-61
2021/05/06 06:06:04;;;;;;;3.95;2.60;;;16.70;39.40;;;;;;4382209;32;20452;-62
2021/05/06 06:08:32;;;;;;;4.05;2.30;;;16.20;40.10;;;;;;4383898;32;20136;-61
2021/05/06 06:10:58;;;;;;;3.72;2.20;;;16.90;40.30;;;;;;4380329;32;20508;-62
2021/05/06 06:13:26;;;;;;;4.85;2.58;;;15.80;41.30;;;;;;4390709;32;20106;-60
2021/05/06 06:16:10;;;;;;;4.30;2.40;;;15.40;44.00;;;;;;4393282;32;20101;-60
2021/05/06 06:18:53;;;;;;;3.55;2.40;;;15.80;42.30;;;;;;4402834;32;20072;-62
2021/05/06 06:21:23;;;;;;;4.43;2.47;;;15.90;41.50;;;;;;4372960;32;20439;-62
2021/05/06 06:23:50;;;;;;;4.00;2.37;;;16.10;42.40;;;;;;4377074;32;20178;-60
2021/05/06 06:26:17;;;;;;;4.25;2.53;;;16.20;42.50;;;;;;4385677;32;20508;-61
2021/05/06 06:28:45;;;;;;;4.00;2.45;;;16.20;42.10;;;;;;4391125;32;20460;-61
2021/05/06 06:33:44;;;;;;;2.87;2.08;;;16.10;41.90;;;;;;4379956;32;20070;-62
2021/05/06 06:36:11;;;;;;;5.37;2.45;;;16.00;42.30;;;;;;4395350;32;20092;-62
2021/05/06 06:38:37;;;;;;;4.35;2.42;;;16.10;42.60;;;;;;4375188;32;20128;-61
2021/05/06 06:41:05;;;;;;;4.05;2.72;;;16.30;41.40;;;;;;4378673;32;20092;-61
2021/05/06 06:43:31;;;;;;;3.72;2.40;;;16.50;40.50;;;;;;4390164;32;20070;-62
2021/05/06 06:45:58;;;;;;;5.20;2.40;;;16.40;40.70;;;;;;4398067;32;20456;-61
2021/05/06 06:48:25;;;;;;;3.20;2.25;;;16.70;41.00;;;;;;4359248;32;20058;-61
2021/05/06 06:50:51;;;;;;;5.03;2.15;;;16.90;40.10;;;;;;4376598;32;20088;-62
2021/05/06 06:53:17;;;;;;;3.03;2.25;;;17.10;39.30;;;;;;4391053;32;20566;-61
2021/05/06 06:55:44;;;;;;;3.87;2.20;;;17.10;39.10;;;;;;4378886;32;20508;-62
2021/05/06 06:58:14;;;;;;;7.55;2.40;;;16.90;38.10;;;;;;4369501;32;20066;-62
2021/05/06 07:00:41;;;;;;;2.70;2.03;;;16.80;38.90;;;;;;4378696;32;20101;-60
2021/05/06 07:03:07;;;;;;;3.05;2.17;;;16.80;38.90;;;;;;4367776;32;20503;-60
2021/05/06 07:05:34;;;;;;;4.28;2.40;;;16.80;38.90;;;;;;4375686;32;20077;-61
2021/05/06 07:08:22;;;;;;;3.53;2.40;;;17.10;38.80;;;;;;4371060;32;20090;-60
2021/05/06 07:10:51;;;;;;;3.03;2.10;;;17.40;38.10;;;;;;4391078;32;20100;-60
2021/05/06 07:13:18;;;;;;;4.75;2.60;;;17.50;37.50;;;;;;4403329;32;20505;-60
2021/05/06 07:15:49;;;;;;;4.15;2.12;;;17.50;37.60;;;;;;4371428;32;20088;-60
2021/05/06 07:18:16;;;;;;;4.60;2.05;;;17.60;36.50;;;;;;4373129;32;20085;-60
2021/05/06 07:20:43;;;;;;;2.55;1.77;;;17.50;36.10;;;;;;4392838;32;20061;-60
2021/05/06 07:23:13;;;;;;;8.63;2.47;;;17.80;36.50;;;;;;4391201;32;20077;-61
2021/05/06 07:25:40;;;;;;;2.47;2.10;;;18.20;36.50;;;;;;4380911;32;20084;-61
